createdAt,value
2019-04-19T00:00:42.550Z,12.40
2019-04-19T00:03:10.765Z,12.40
2019-04-19T00:06:13.655Z,12.30
2019-04-19T00:08:54.111Z,12.40
2019-04-19T00:11:17.726Z,12.40
2019-04-19T00:13:32.936Z,12.40
2019-04-19T00:16:00.537Z,12.40
2019-04-19T00:18:28.259Z,12.40
2019-04-19T00:21:13.803Z,12.30
2019-04-19T00:23:33.135Z,12.30
2019-04-19T00:25:53.620Z,12.30
2019-04-19T00:28:31.883Z,12.30
2019-04-19T00:30:56.829Z,12.20
2019-04-19T00:33:26.084Z,12.20
2019-04-19T00:35:47.447Z,12.10
2019-04-19T00:38:26.529Z,12.10
2019-04-19T00:41:11.486Z,12.10
2019-04-19T00:44:06.924Z,12.10
2019-04-19T00:46:38.322Z,12.10
2019-04-19T00:49:05.556Z,12.00
2019-04-19T00:51:39.922Z,12.00
2019-04-19T00:54:00.346Z,12.10
2019-04-19T00:56:32.713Z,12.10
2019-04-19T00:58:53.298Z,12.00
2019-04-19T01:01:21.522Z,12.00
2019-04-19T01:03:48.710Z,12.10
2019-04-19T01:06:18.287Z,12.10
2019-04-19T01:08:56.372Z,12.10
2019-04-19T01:11:23.389Z,12.10
2019-04-19T01:13:56.235Z,12.20
2019-04-19T01:16:21.207Z,12.10
2019-04-19T01:18:47.291Z,12.10
2019-04-19T01:21:06.981Z,12.10
2019-04-19T01:23:40.799Z,12.00
2019-04-19T01:26:05.824Z,12.00
2019-04-19T01:28:32.520Z,11.90
2019-04-19T01:31:02.970Z,11.80
2019-04-19T01:33:34.529Z,11.70
2019-04-19T01:36:02.072Z,11.70
2019-04-19T01:38:32.530Z,11.60
2019-04-19T01:41:13.300Z,11.60
2019-04-19T01:43:48.869Z,11.70
2019-04-19T01:46:32.092Z,11.60
2019-04-19T01:48:53.565Z,11.50
2019-04-19T01:51:42.540Z,11.50
2019-04-19T01:54:24.788Z,11.50
2019-04-19T01:56:47.251Z,11.40
2019-04-19T01:59:07.858Z,11.30
2019-04-19T02:01:35.980Z,11.30
2019-04-19T02:04:06.355Z,11.20
2019-04-19T02:06:37.864Z,11.20
2019-04-19T02:09:01.975Z,11.10
2019-04-19T02:11:50.480Z,11.10
2019-04-19T02:14:15.420Z,11.10
2019-04-19T02:16:38.646Z,11.00
2019-04-19T02:19:11.720Z,11.00
2019-04-19T02:21:38.996Z,11.00
2019-04-19T02:24:05.116Z,11.00
2019-04-19T02:26:32.350Z,11.00
2019-04-19T02:29:07.505Z,11.10
2019-04-19T02:31:58.081Z,11.00
2019-04-19T02:34:28.786Z,11.00
2019-04-19T02:37:05.190Z,10.90
2019-04-19T02:41:58.037Z,10.80
2019-04-19T02:44:18.192Z,10.80
2019-04-19T02:47:08.832Z,10.80
2019-04-19T02:49:24.060Z,10.70
2019-04-19T02:51:50.131Z,10.70
2019-04-19T02:54:22.676Z,10.60
2019-04-19T02:57:31.414Z,10.60
2019-04-19T02:59:59.131Z,10.50
2019-04-19T03:02:38.355Z,10.50
2019-04-19T03:05:04.403Z,10.40
2019-04-19T03:06:56.115Z,10.40
2019-04-19T03:09:24.231Z,10.30
2019-04-19T03:12:02.214Z,10.30
2019-04-19T03:14:35.513Z,10.30
2019-04-19T03:17:07.290Z,10.30
2019-04-19T03:19:27.699Z,10.30
2019-04-19T03:21:56.012Z,10.20
2019-04-19T03:24:25.228Z,10.20
2019-04-19T03:26:54.084Z,10.20
2019-04-19T03:29:22.291Z,10.10
2019-04-19T03:32:17.777Z,10.10
2019-04-19T03:34:48.245Z,10.10
2019-04-19T03:36:50.721Z,10.10
2019-04-19T03:39:49.001Z,10.00
2019-04-19T03:42:06.134Z,10.00
2019-04-19T03:44:30.618Z,10.00
2019-04-19T03:49:40.034Z,9.90
2019-04-19T03:54:28.259Z,9.90
2019-04-19T03:56:55.043Z,9.80
2019-04-19T03:59:09.397Z,9.80
2019-04-19T04:01:42.331Z,9.80
2019-04-19T04:04:11.788Z,9.80
2019-04-19T04:06:37.072Z,9.70
2019-04-19T04:09:08.308Z,9.70
2019-04-19T04:11:51.972Z,9.70
2019-04-19T04:14:25.673Z,9.60
2019-04-19T04:16:58.383Z,9.60
2019-04-19T04:19:27.247Z,9.60
2019-04-19T04:21:55.610Z,9.60
2019-04-19T04:24:29.130Z,9.60
2019-04-19T04:27:00.148Z,9.60
2019-04-19T04:29:27.833Z,9.60
2019-04-19T04:32:03.321Z,9.60
2019-04-19T04:34:29.346Z,9.60
2019-04-19T04:37:05.294Z,9.60
2019-04-19T04:39:16.075Z,9.60
2019-04-19T04:41:46.022Z,9.60
2019-04-19T04:44:29.530Z,9.60
2019-04-19T04:47:19.279Z,9.70
2019-04-19T04:49:59.412Z,9.70
2019-04-19T04:52:32.522Z,9.80
2019-04-19T04:55:01.002Z,9.80
2019-04-19T04:57:39.521Z,9.90
2019-04-19T04:59:59.237Z,9.90
2019-04-19T05:02:42.731Z,10.00
2019-04-19T05:05:11.367Z,10.00
2019-04-19T05:07:39.259Z,10.10
2019-04-19T05:10:12.419Z,10.10
2019-04-19T05:13:01.216Z,10.10
2019-04-19T05:15:01.471Z,10.10
2019-04-19T05:20:06.659Z,10.20
2019-04-19T05:22:28.447Z,10.30
2019-04-19T05:25:14.737Z,10.40
2019-04-19T05:27:34.555Z,10.50
2019-04-19T05:29:44.943Z,10.60
2019-04-19T05:32:16.703Z,10.70
2019-04-19T05:34:55.944Z,10.80
2019-04-19T05:37:21.258Z,10.80
2019-04-19T05:40:07.938Z,10.90
2019-04-19T05:42:46.977Z,11.00
2019-04-19T05:47:40.621Z,11.10
2019-04-19T05:50:21.554Z,11.20
2019-04-19T05:52:42.561Z,11.20
2019-04-19T05:54:53.818Z,11.40
2019-04-19T05:57:40.188Z,11.50
2019-04-19T05:59:56.851Z,11.60
2019-04-19T06:02:26.390Z,11.80
2019-04-19T06:05:10.475Z,11.90
2019-04-19T06:07:31.297Z,12.10
2019-04-19T06:09:43.292Z,12.30
2019-04-19T06:12:19.246Z,12.40
2019-04-19T06:15:05.184Z,12.70
2019-04-19T06:17:43.681Z,13.20
2019-04-19T06:20:13.939Z,13.60
2019-04-19T06:22:38.562Z,13.80
2019-04-19T06:25:12.441Z,14.00
2019-04-19T06:27:53.235Z,14.50
2019-04-19T06:30:10.090Z,14.90
2019-04-19T06:32:40.649Z,15.80
2019-04-19T06:35:02.540Z,16.00
2019-04-19T06:37:21.009Z,16.50
2019-04-19T06:39:43.723Z,17.10
2019-04-19T06:42:13.567Z,17.00
2019-04-19T06:45:00.591Z,17.00
2019-04-19T06:47:16.307Z,16.50
2019-04-19T06:49:37.697Z,17.10
2019-04-19T06:52:11.902Z,17.10
2019-04-19T06:54:37.369Z,18.20
2019-04-19T06:57:12.076Z,18.30
2019-04-19T06:59:50.397Z,19.00
2019-04-19T07:01:59.637Z,18.90
2019-04-19T07:04:27.663Z,19.00
2019-04-19T07:07:15.797Z,20.20
2019-04-19T07:10:04.587Z,20.00
2019-04-19T07:12:16.958Z,19.80
2019-04-19T07:14:25.835Z,19.80
2019-04-19T07:17:05.567Z,20.30
2019-04-19T07:19:41.007Z,20.90
2019-04-19T07:21:59.533Z,21.40
2019-04-19T07:24:39.282Z,21.30
2019-04-19T07:27:04.312Z,20.80
2019-04-19T07:29:12.753Z,21.30
2019-04-19T07:31:40.171Z,21.90
2019-04-19T07:34:27.058Z,21.90
2019-04-19T07:36:57.659Z,22.50
2019-04-19T07:39:25.581Z,22.10
2019-04-19T07:41:54.208Z,22.80
2019-04-19T07:44:38.671Z,23.10
2019-04-19T07:47:41.643Z,23.20
2019-04-19T07:50:08.351Z,24.20
2019-04-19T07:52:40.227Z,25.60
2019-04-19T07:55:02.258Z,25.60
2019-04-19T08:00:21.179Z,25.30
2019-04-19T08:02:49.617Z,24.70
2019-04-19T08:10:09.051Z,25.80
2019-04-19T08:12:46.207Z,26.10
2019-04-19T08:15:17.060Z,27.00
2019-04-19T08:17:47.206Z,27.90
2019-04-19T08:27:16.661Z,26.90
2019-04-19T08:29:47.247Z,27.50
2019-04-19T08:32:10.816Z,26.70
2019-04-19T08:34:40.278Z,27.20
2019-04-19T08:37:16.485Z,27.50
2019-04-19T08:39:49.018Z,27.60
2019-04-19T08:42:28.610Z,28.10
2019-04-19T08:44:46.096Z,28.60
2019-04-19T08:47:31.141Z,28.30
2019-04-19T08:50:04.109Z,28.90
2019-04-19T08:52:33.697Z,29.80
2019-04-19T08:55:20.546Z,29.60
2019-04-19T08:57:30.785Z,29.40
2019-04-19T09:00:25.609Z,29.10
2019-04-19T09:02:43.169Z,29.70
2019-04-19T09:05:14.506Z,30.50
2019-04-19T09:12:45.925Z,30.80
2019-04-19T09:15:10.825Z,30.90
2019-04-19T09:17:59.441Z,30.50
2019-04-19T09:22:36.808Z,29.60
2019-04-19T09:24:56.057Z,28.60
2019-04-19T09:27:39.565Z,29.10
2019-04-19T09:30:09.549Z,30.40
2019-04-19T09:32:20.612Z,30.70
2019-04-19T09:34:49.552Z,30.50
2019-04-19T09:37:18.346Z,30.00
2019-04-19T09:39:50.097Z,29.20
2019-04-19T09:42:16.867Z,29.80
2019-04-19T09:44:41.533Z,29.40
2019-04-19T09:47:05.576Z,28.20
2019-04-19T09:49:47.845Z,27.40
2019-04-19T09:52:27.863Z,26.80
2019-04-19T09:54:52.530Z,26.80
2019-04-19T09:57:16.455Z,26.80
2019-04-19T09:59:33.692Z,27.90
2019-04-19T10:02:00.650Z,28.50
2019-04-19T10:04:25.109Z,28.70
2019-04-19T10:06:53.388Z,29.00
2019-04-19T10:09:22.372Z,29.30
2019-04-19T10:11:48.744Z,29.90
2019-04-19T10:14:15.379Z,29.10
2019-04-19T10:17:05.463Z,28.90
2019-04-19T10:19:33.031Z,28.30
2019-04-19T10:22:06.830Z,28.50
2019-04-19T10:24:33.543Z,28.80
2019-04-19T10:27:09.093Z,28.10
2019-04-19T10:29:40.139Z,28.00
2019-04-19T10:32:15.073Z,28.70
2019-04-19T10:34:42.778Z,29.30
2019-04-19T10:37:10.820Z,29.80
2019-04-19T10:39:37.624Z,29.50
2019-04-19T10:42:06.199Z,30.40
2019-04-19T10:44:33.966Z,29.70
2019-04-19T10:47:01.060Z,30.40
2019-04-19T10:49:36.046Z,29.80
2019-04-19T10:52:07.396Z,30.70
2019-04-19T10:54:34.019Z,30.40
2019-04-19T10:57:08.217Z,29.80
2019-04-19T10:59:36.607Z,30.40
2019-04-19T11:02:04.135Z,29.60
2019-04-19T11:04:31.170Z,29.10
2019-04-19T11:06:59.837Z,30.00
2019-04-19T11:09:27.088Z,29.10
2019-04-19T11:11:55.255Z,29.30
2019-04-19T11:14:22.152Z,29.00
2019-04-19T11:16:49.364Z,29.30
2019-04-19T11:19:20.962Z,29.30
2019-04-19T11:21:45.551Z,29.80
2019-04-19T11:24:13.716Z,30.10
2019-04-19T11:26:41.109Z,30.00
2019-04-19T11:29:08.007Z,29.70
2019-04-19T11:31:49.904Z,30.30
2019-04-19T11:34:17.267Z,30.90
2019-04-19T11:36:44.136Z,29.00
2019-04-19T11:39:12.795Z,29.60
2019-04-19T11:41:39.560Z,28.80
2019-04-19T11:44:15.025Z,29.00
2019-04-19T11:46:35.822Z,29.30
2019-04-19T11:49:03.864Z,29.40
2019-04-19T11:51:32.014Z,28.80
2019-04-19T11:53:59.173Z,29.50
2019-04-19T11:56:50.632Z,29.10
2019-04-19T11:59:36.975Z,30.10
2019-04-19T12:02:04.009Z,30.50
2019-04-19T12:04:30.683Z,29.90
2019-04-19T12:06:58.572Z,30.40
2019-04-19T12:09:25.356Z,31.40
2019-04-19T12:11:51.955Z,30.80
2019-04-19T12:14:19.650Z,31.00
2019-04-19T12:16:47.379Z,30.00
2019-04-19T12:19:14.281Z,29.10
2019-04-19T12:21:41.294Z,28.60
2019-04-19T12:24:08.706Z,29.20
2019-04-19T12:26:35.694Z,30.10
2019-04-19T12:29:05.607Z,29.80
2019-04-19T12:31:31.684Z,30.20
2019-04-19T12:33:59.549Z,29.00
2019-04-19T12:36:26.351Z,29.60
2019-04-19T12:38:53.725Z,29.30
2019-04-19T12:41:21.696Z,28.20
2019-04-19T12:43:49.845Z,28.40
2019-04-19T12:46:16.982Z,28.50
2019-04-19T12:48:43.846Z,28.10
2019-04-19T12:51:12.118Z,27.90
2019-04-19T12:53:39.271Z,28.40
2019-04-19T12:56:06.354Z,28.30
2019-04-19T12:58:33.140Z,28.70
2019-04-19T13:01:28.429Z,29.00
2019-04-19T13:04:06.642Z,29.40
2019-04-19T13:06:35.768Z,30.10
2019-04-19T13:09:05.357Z,29.20
2019-04-19T13:11:32.856Z,29.60
2019-04-19T13:13:59.789Z,29.10
2019-04-19T13:16:26.660Z,29.50
2019-04-19T13:18:54.262Z,28.50
2019-04-19T13:21:21.975Z,28.30
2019-04-19T13:23:48.774Z,28.40
2019-04-19T13:26:15.505Z,28.60
2019-04-19T13:28:43.720Z,27.30
2019-04-19T13:31:12.773Z,27.50
2019-04-19T13:33:39.516Z,27.30
2019-04-19T13:36:11.123Z,28.00
2019-04-19T13:39:01.426Z,28.80
2019-04-19T13:41:54.712Z,29.70
2019-04-19T13:44:22.843Z,28.90
2019-04-19T13:46:50.758Z,27.40
2019-04-19T13:49:18.760Z,27.70
2019-04-19T13:51:45.611Z,27.80
2019-04-19T13:54:12.563Z,27.70
2019-04-19T13:56:40.593Z,28.20
2019-04-19T13:59:07.666Z,28.20
2019-04-19T14:01:34.535Z,28.80
2019-04-19T14:04:01.722Z,28.70
2019-04-19T14:06:28.721Z,28.30
2019-04-19T14:08:55.412Z,28.50
2019-04-19T14:11:22.030Z,28.90
2019-04-19T14:13:53.822Z,28.50
2019-04-19T14:16:18.695Z,28.50
2019-04-19T14:18:46.767Z,27.80
2019-04-19T14:21:14.810Z,28.10
2019-04-19T14:23:41.840Z,28.00
2019-04-19T14:26:09.636Z,28.20
2019-04-19T14:28:36.456Z,28.50
2019-04-19T14:31:04.980Z,28.70
2019-04-19T14:33:32.833Z,28.10
2019-04-19T14:35:59.859Z,28.10
2019-04-19T14:38:27.593Z,27.60
2019-04-19T14:40:55.435Z,26.80
2019-04-19T14:43:22.702Z,27.10
2019-04-19T14:45:50.696Z,26.90
2019-04-19T14:48:25.815Z,26.70
2019-04-19T14:50:52.981Z,27.20
2019-04-19T14:53:14.756Z,27.80
2019-04-19T14:55:41.444Z,28.00
2019-04-19T14:58:08.381Z,27.50
2019-04-19T15:00:35.209Z,28.10
2019-04-19T15:03:10.557Z,27.00
2019-04-19T15:05:39.649Z,25.80
2019-04-19T15:08:06.642Z,25.90
2019-04-19T15:10:33.544Z,26.20
2019-04-19T15:13:00.936Z,26.50
2019-04-19T15:15:29.102Z,27.00
2019-04-19T15:17:57.581Z,27.00
2019-04-19T15:20:24.759Z,26.80
2019-04-19T15:22:52.599Z,26.10
2019-04-19T15:25:21.673Z,25.70
2019-04-19T15:27:48.734Z,25.70
2019-04-19T15:30:17.009Z,25.70
2019-04-19T15:32:44.511Z,25.60
2019-04-19T15:35:14.260Z,25.70
2019-04-19T15:37:41.255Z,25.70
2019-04-19T15:40:09.820Z,24.90
2019-04-19T15:42:36.808Z,24.60
2019-04-19T15:45:05.018Z,23.80
2019-04-19T15:47:32.743Z,23.70
2019-04-19T15:49:59.976Z,23.70
2019-04-19T15:52:28.105Z,23.40
2019-04-19T15:54:56.234Z,23.20
2019-04-19T15:57:23.858Z,23.10
2019-04-19T15:59:51.813Z,23.10
2019-04-19T16:02:38.566Z,22.90
2019-04-19T16:05:26.423Z,23.10
2019-04-19T16:08:04.444Z,22.90
2019-04-19T16:10:36.870Z,22.50
2019-04-19T16:13:03.651Z,22.60
2019-04-19T16:15:30.328Z,22.50
2019-04-19T16:17:57.836Z,22.40
2019-04-19T16:20:25.201Z,22.30
2019-04-19T16:22:52.255Z,22.40
2019-04-19T16:25:19.134Z,22.30
2019-04-19T16:27:46.805Z,22.20
2019-04-19T16:30:14.811Z,22.10
2019-04-19T16:32:41.453Z,22.00
2019-04-19T16:35:09.888Z,21.90
2019-04-19T16:37:37.151Z,21.90
2019-04-19T16:40:10.301Z,21.90
2019-04-19T16:42:36.973Z,21.80
2019-04-19T16:45:05.958Z,21.60
2019-04-19T16:47:33.373Z,21.50
2019-04-19T16:50:00.633Z,21.30
2019-04-19T16:52:28.873Z,21.20
2019-04-19T16:54:58.775Z,21.10
2019-04-19T16:57:28.299Z,21.00
2019-04-19T16:59:52.760Z,21.00
2019-04-19T17:02:19.378Z,20.90
2019-04-19T17:04:46.079Z,20.80
2019-04-19T17:07:13.191Z,20.60
2019-04-19T17:09:42.691Z,20.50
2019-04-19T17:12:10.409Z,20.40
2019-04-19T17:14:37.174Z,20.30
2019-04-19T17:17:24.602Z,20.20
2019-04-19T17:19:55.612Z,20.00
2019-04-19T17:22:36.694Z,20.00
2019-04-19T17:25:05.293Z,19.90
2019-04-19T17:27:33.591Z,19.80
2019-04-19T17:30:02.093Z,19.80
2019-04-19T17:32:30.149Z,19.60
2019-04-19T17:34:58.036Z,19.60
2019-04-19T17:37:26.333Z,19.50
2019-04-19T17:39:53.094Z,19.40
2019-04-19T17:42:19.683Z,19.30
2019-04-19T17:44:47.322Z,19.30
2019-04-19T17:47:17.019Z,19.20
2019-04-19T17:49:45.363Z,19.00
2019-04-19T17:52:20.894Z,18.90
2019-04-19T17:54:55.857Z,18.80
2019-04-19T17:57:09.257Z,18.70
2019-04-19T17:59:36.373Z,18.60
2019-04-19T18:02:03.425Z,18.60
2019-04-19T18:04:30.597Z,18.50
2019-04-19T18:07:01.232Z,18.40
2019-04-19T18:09:26.400Z,18.30
2019-04-19T18:11:53.548Z,18.20
2019-04-19T18:14:20.375Z,18.10
2019-04-19T18:16:48.358Z,18.00
2019-04-19T18:19:23.276Z,18.00
2019-04-19T18:21:44.128Z,17.90
2019-04-19T18:24:20.089Z,17.80
2019-04-19T18:26:39.724Z,17.70
2019-04-19T18:29:07.675Z,17.70
2019-04-19T18:31:40.713Z,17.50
2019-04-19T18:34:09.626Z,17.50
2019-04-19T18:36:32.619Z,17.30
2019-04-19T18:39:00.264Z,17.30
2019-04-19T18:41:27.314Z,17.20
2019-04-19T18:44:04.650Z,17.10
2019-04-19T18:46:22.738Z,17.00
2019-04-19T18:48:49.619Z,16.90
2019-04-19T18:51:20.742Z,16.90
2019-04-19T18:53:58.247Z,16.70
2019-04-19T18:56:19.207Z,16.70
2019-04-19T18:58:43.998Z,16.70
2019-04-19T19:01:21.288Z,16.60
2019-04-19T19:03:43.122Z,16.60
2019-04-19T19:06:09.572Z,16.50
2019-04-19T19:08:47.283Z,16.50
2019-04-19T19:11:12.971Z,16.40
2019-04-19T19:13:36.146Z,16.30
2019-04-19T19:16:02.352Z,16.20
2019-04-19T19:18:35.076Z,16.20
2019-04-19T19:21:01.125Z,16.20
2019-04-19T19:23:43.198Z,16.20
2019-04-19T19:26:07.252Z,16.20
2019-04-19T19:28:24.926Z,16.10
2019-04-19T19:30:53.194Z,16.00
2019-04-19T19:33:23.821Z,15.90
2019-04-19T19:35:54.915Z,15.70
2019-04-19T19:38:25.497Z,15.70
2019-04-19T19:41:00.042Z,15.60
2019-04-19T19:43:34.062Z,15.60
2019-04-19T19:45:55.845Z,15.50
2019-04-19T19:48:28.546Z,15.50
2019-04-19T19:53:44.410Z,15.30
2019-04-19T19:56:07.341Z,15.30
2019-04-19T19:58:17.206Z,15.30
2019-04-19T20:00:56.729Z,15.20
2019-04-19T20:03:13.483Z,15.10
2019-04-19T20:05:36.472Z,15.00
2019-04-19T20:08:01.679Z,14.90
2019-04-19T20:10:36.107Z,14.80
2019-04-19T20:13:00.903Z,14.70
2019-04-19T20:15:28.917Z,14.60
2019-04-19T20:17:57.959Z,14.60
2019-04-19T20:20:30.940Z,14.50
2019-04-19T20:22:52.477Z,14.50
2019-04-19T20:25:32.474Z,14.40
2019-04-19T20:27:52.070Z,14.40
2019-04-19T20:30:17.430Z,14.40
2019-04-19T20:32:44.794Z,14.40
2019-04-19T20:35:17.615Z,14.40
2019-04-19T20:37:41.982Z,14.30
2019-04-19T20:40:15.602Z,14.10
2019-04-19T20:43:02.093Z,14.00
2019-04-19T20:45:16.547Z,14.00
2019-04-19T20:47:43.751Z,14.00
2019-04-19T20:50:17.336Z,14.00
2019-04-19T20:52:45.380Z,13.90
2019-04-19T20:55:25.097Z,13.90
2019-04-19T20:58:09.798Z,13.80
2019-04-19T21:00:35.027Z,13.70
2019-04-19T21:03:01.802Z,13.60
2019-04-19T21:05:34.711Z,13.60
2019-04-19T21:08:01.764Z,13.50
2019-04-19T21:10:25.796Z,13.40
2019-04-19T21:12:55.637Z,13.40
2019-04-19T21:15:28.087Z,13.40
2019-04-19T21:17:51.542Z,13.50
2019-04-19T21:20:23.930Z,13.40
2019-04-19T21:22:48.556Z,13.40
2019-04-19T21:25:19.923Z,13.40
2019-04-19T21:27:49.206Z,13.30
2019-04-19T21:30:14.707Z,13.30
2019-04-19T21:32:41.488Z,13.20
2019-04-19T21:35:12.240Z,13.10
2019-04-19T21:37:42.379Z,13.10
2019-04-19T21:40:06.297Z,13.00
2019-04-19T21:42:39.625Z,12.90
2019-04-19T21:45:03.519Z,12.90
2019-04-19T21:47:34.018Z,12.90
2019-04-19T21:50:01.201Z,12.90
2019-04-19T21:52:29.078Z,12.90
2019-04-19T21:55:10.360Z,12.80
2019-04-19T21:57:29.535Z,12.70
2019-04-19T21:59:54.235Z,12.70
2019-04-19T22:02:36.619Z,12.60
2019-04-19T22:04:57.410Z,12.50
2019-04-19T22:07:25.438Z,12.50
2019-04-19T22:09:58.499Z,12.40
2019-04-19T22:12:20.884Z,12.30
2019-04-19T22:14:48.582Z,12.20
2019-04-19T22:17:19.724Z,12.20
2019-04-19T22:19:44.175Z,12.20
2019-04-19T22:22:19.212Z,12.10
2019-04-19T22:24:41.043Z,12.10
2019-04-19T22:27:07.994Z,12.00
2019-04-19T22:29:35.701Z,12.00
2019-04-19T22:32:08.515Z,12.00
2019-04-19T22:34:32.646Z,11.90
2019-04-19T22:37:01.741Z,11.90
2019-04-19T22:39:28.100Z,11.90
2019-04-19T22:41:54.991Z,11.90
2019-04-19T22:44:22.830Z,11.90
2019-04-19T22:46:52.878Z,11.80
2019-04-19T22:49:19.897Z,11.80
2019-04-19T22:51:46.696Z,11.60
2019-04-19T22:54:14.819Z,11.60
2019-04-19T22:56:52.448Z,11.50
2019-04-19T22:59:16.151Z,11.50
2019-04-19T23:02:01.521Z,11.40
2019-04-19T23:04:26.565Z,11.40
2019-04-19T23:07:01.088Z,11.50
2019-04-19T23:09:23.171Z,11.40
2019-04-19T23:11:51.226Z,11.40
2019-04-19T23:14:41.458Z,11.30
2019-04-19T23:17:08.199Z,11.30
2019-04-19T23:19:39.252Z,11.20
2019-04-19T23:22:03.760Z,11.20
2019-04-19T23:24:31.211Z,11.20
2019-04-19T23:27:10.986Z,11.10
2019-04-19T23:29:30.756Z,11.00
2019-04-19T23:31:55.973Z,11.00
2019-04-19T23:34:25.186Z,11.00
2019-04-19T23:36:59.724Z,11.10
2019-04-19T23:39:21.202Z,11.10
2019-04-19T23:41:49.056Z,11.00
2019-04-19T23:44:19.494Z,11.00
2019-04-19T23:46:45.451Z,11.00
2019-04-19T23:49:14.568Z,11.00
2019-04-19T23:51:41.128Z,10.90
2019-04-19T23:54:15.104Z,10.90
2019-04-19T23:56:49.151Z,10.90
2019-04-19T23:59:12.882Z,11.00
